createdAt,value
2018-05-21T00:00:55.540Z,84.52
2018-05-21T00:01:55.137Z,84.52
2018-05-21T00:03:17.429Z,84.62
2018-05-21T00:04:39.665Z,84.62
2018-05-21T00:06:02.063Z,84.62
2018-05-21T00:07:03.464Z,84.81
2018-05-21T00:08:01.969Z,84.62
2018-05-21T00:09:03.071Z,84.72
2018-05-21T00:10:02.958Z,84.91
2018-05-21T00:11:02.667Z,84.81
2018-05-21T00:12:02.505Z,84.67
2018-05-21T00:13:02.265Z,84.58
2018-05-21T00:14:02.263Z,84.77
2018-05-21T00:15:01.910Z,84.48
2018-05-21T00:16:02.943Z,84.67
2018-05-21T00:17:02.814Z,84.77
2018-05-21T00:18:02.465Z,84.48
2018-05-21T00:19:01.989Z,84.48
2018-05-21T00:20:03.379Z,84.58
2018-05-21T00:21:01.898Z,84.58
2018-05-21T00:22:02.372Z,84.48
2018-05-21T00:23:23.160Z,84.58
2018-05-21T00:24:23.859Z,84.58
2018-05-21T00:25:23.414Z,84.67
2018-05-21T00:26:23.959Z,84.67
2018-05-21T00:27:23.599Z,84.67
2018-05-21T00:28:23.917Z,84.48
2018-05-21T00:29:23.892Z,84.39
2018-05-21T00:30:23.278Z,84.39
2018-05-21T00:31:23.656Z,84.39
2018-05-21T00:32:23.938Z,84.29
2018-05-21T00:33:23.670Z,84.48
2018-05-21T00:34:24.349Z,84.29
2018-05-21T00:35:24.072Z,84.16
2018-05-21T00:36:23.654Z,84.16
2018-05-21T00:37:24.291Z,83.96
2018-05-21T00:38:24.401Z,84.16
2018-05-21T00:39:45.418Z,84.16
2018-05-21T00:40:46.118Z,84.16
2018-05-21T00:41:45.676Z,84.06
2018-05-21T00:42:46.388Z,84.25
2018-05-21T00:43:46.123Z,83.96
2018-05-21T00:44:45.800Z,83.87
2018-05-21T00:45:46.057Z,84.16
2018-05-21T00:46:45.709Z,83.96
2018-05-21T00:47:46.364Z,83.77
2018-05-21T00:48:45.832Z,83.96
2018-05-21T00:50:06.617Z,83.58
2018-05-21T00:51:07.217Z,83.39
2018-05-21T00:52:28.098Z,83.67
2018-05-21T00:53:28.617Z,83.11
2018-05-21T00:54:28.354Z,83.39
2018-05-21T00:55:29.250Z,83.87
2018-05-21T00:56:28.949Z,83.20
2018-05-21T00:57:28.831Z,83.01
2018-05-21T00:58:28.185Z,82.82
2018-05-21T00:59:28.730Z,83.11
2018-05-21T01:00:28.705Z,83.39
2018-05-21T01:01:28.505Z,83.01
2018-05-21T01:02:28.352Z,82.53
2018-05-21T01:03:50.177Z,82.53
2018-05-21T01:04:50.747Z,82.43
2018-05-21T01:05:50.243Z,82.82
2018-05-21T01:06:50.691Z,82.63
2018-05-21T01:07:50.519Z,82.68
2018-05-21T01:08:51.147Z,82.78
2018-05-21T01:09:50.844Z,82.78
2018-05-21T01:10:50.572Z,82.49
2018-05-21T01:11:50.028Z,82.59
2018-05-21T01:12:50.618Z,82.49
2018-05-21T01:13:50.139Z,82.68
2018-05-21T01:14:50.677Z,82.97
2018-05-21T01:15:50.417Z,82.78
2018-05-21T01:16:51.399Z,82.97
2018-05-21T01:17:50.887Z,83.16
2018-05-21T01:18:50.501Z,82.97
2018-05-21T01:19:50.194Z,83.16
2018-05-21T01:20:50.819Z,83.54
2018-05-21T01:22:33.185Z,83.16
2018-05-21T01:23:33.756Z,83.06
2018-05-21T01:25:17.725Z,82.78
2018-05-21T01:26:18.336Z,82.97
2018-05-21T01:27:18.091Z,82.59
2018-05-21T01:28:39.324Z,82.87
2018-05-21T01:29:40.042Z,82.78
2018-05-21T01:30:40.509Z,82.87
2018-05-21T01:31:39.317Z,82.78
2018-05-21T01:33:01.230Z,82.87
2018-05-21T01:34:02.179Z,82.87
2018-05-21T01:35:01.918Z,82.78
2018-05-21T01:36:01.653Z,82.87
2018-05-21T01:37:01.147Z,82.68
2018-05-21T01:38:01.565Z,82.68
2018-05-21T01:39:24.635Z,82.78
2018-05-21T01:40:24.087Z,82.49
2018-05-21T01:41:24.550Z,82.78
2018-05-21T01:42:24.094Z,82.78
2018-05-21T01:43:50.132Z,82.59
2018-05-21T01:44:47.752Z,82.59
2018-05-21T01:45:47.325Z,82.11
2018-05-21T01:46:47.923Z,82.87
2018-05-21T01:47:47.620Z,82.78
2018-05-21T01:48:48.175Z,82.87
2018-05-21T01:49:47.772Z,83.64
2018-05-21T01:50:48.707Z,83.25
2018-05-21T01:51:47.102Z,83.35
2018-05-21T01:52:48.408Z,83.44
2018-05-21T01:53:47.890Z,83.35
2018-05-21T01:54:47.360Z,83.35
2018-05-21T01:55:48.029Z,82.87
2018-05-21T01:56:47.349Z,82.97
2018-05-21T01:57:48.018Z,83.35
2018-05-21T01:58:47.322Z,83.92
2018-05-21T01:59:48.474Z,84.01
2018-05-21T02:00:48.249Z,83.44
2018-05-21T02:01:47.945Z,83.35
2018-05-21T02:02:47.501Z,83.44
2018-05-21T02:03:48.279Z,83.64
2018-05-21T02:04:47.678Z,83.54
2018-05-21T02:05:48.117Z,83.06
2018-05-21T02:06:47.481Z,84.01
2018-05-21T02:07:47.693Z,83.44
2018-05-21T02:08:48.330Z,83.16
2018-05-21T02:09:47.938Z,83.44
2018-05-21T02:10:47.510Z,83.16
2018-05-21T02:11:47.827Z,83.06
2018-05-21T02:12:47.398Z,83.35
2018-05-21T02:14:30.788Z,83.25
2018-05-21T02:15:31.429Z,83.35
2018-05-21T02:16:30.794Z,83.64
2018-05-21T02:17:31.147Z,83.64
2018-05-21T02:18:31.960Z,83.83
2018-05-21T02:19:31.765Z,83.92
2018-05-21T02:20:52.653Z,83.54
2018-05-21T02:21:52.935Z,83.73
2018-05-21T02:23:15.282Z,83.35
2018-05-21T02:24:16.310Z,83.54
2018-05-21T02:25:15.816Z,84.01
2018-05-21T02:26:16.414Z,83.64
2018-05-21T02:27:19.714Z,83.64
2018-05-21T02:28:40.729Z,83.73
2018-05-21T02:29:40.132Z,83.83
2018-05-21T02:30:39.653Z,83.92
2018-05-21T02:32:05.188Z,84.01
2018-05-21T02:33:03.942Z,84.11
2018-05-21T02:34:03.402Z,83.92
2018-05-21T02:35:05.025Z,84.11
2018-05-21T02:36:03.890Z,83.92
2018-05-21T02:37:26.391Z,83.64
2018-05-21T02:38:26.094Z,83.64
2018-05-21T02:39:25.995Z,83.44
2018-05-21T02:40:25.602Z,83.73
2018-05-21T02:41:46.553Z,83.50
2018-05-21T02:42:47.111Z,83.50
2018-05-21T02:44:09.400Z,83.21
2018-05-21T02:45:10.226Z,83.64
2018-05-21T02:46:09.621Z,83.78
2018-05-21T02:47:30.890Z,83.69
2018-05-21T02:48:31.426Z,83.50
2018-05-21T02:49:31.250Z,84.07
2018-05-21T02:50:31.913Z,83.59
2018-05-21T02:51:31.668Z,83.59
2018-05-21T02:52:31.192Z,83.21
2018-05-21T02:53:30.758Z,83.59
2018-05-21T02:54:32.178Z,83.31
2018-05-21T02:55:31.876Z,83.12
2018-05-21T02:56:31.377Z,82.83
2018-05-21T02:57:30.952Z,83.21
2018-05-21T02:58:31.788Z,82.92
2018-05-21T02:59:31.382Z,82.92
2018-05-21T03:00:31.156Z,82.92
2018-05-21T03:01:53.135Z,82.73
2018-05-21T03:02:53.500Z,83.02
2018-05-21T03:03:54.071Z,82.73
2018-05-21T03:04:53.912Z,82.35
2018-05-21T03:05:53.509Z,82.92
2018-05-21T03:06:54.341Z,82.54
2018-05-21T03:07:53.767Z,82.45
2018-05-21T03:08:53.475Z,82.73
2018-05-21T03:09:54.318Z,82.73
2018-05-21T03:10:53.777Z,82.54
2018-05-21T03:11:53.273Z,82.26
2018-05-21T03:12:53.754Z,82.35
2018-05-21T03:13:53.613Z,82.26
2018-05-21T03:14:54.187Z,81.97
2018-05-21T03:15:53.656Z,82.26
2018-05-21T03:16:54.563Z,81.78
2018-05-21T03:17:54.337Z,81.59
2018-05-21T03:18:53.860Z,81.59
2018-05-21T03:19:53.449Z,81.49
2018-05-21T03:21:15.325Z,81.30
2018-05-21T03:22:16.126Z,81.26
2018-05-21T03:23:15.611Z,81.17
2018-05-21T03:24:16.335Z,81.26
2018-05-21T03:25:15.809Z,80.79
2018-05-21T03:26:15.233Z,80.88
2018-05-21T03:27:15.631Z,80.60
2018-05-21T03:28:16.066Z,81.17
2018-05-21T03:29:15.577Z,81.26
2018-05-21T03:30:16.272Z,81.17
2018-05-21T03:31:37.170Z,80.41
2018-05-21T03:32:37.749Z,80.98
2018-05-21T03:33:37.486Z,80.88
2018-05-21T03:34:37.944Z,81.17
2018-05-21T03:35:38.011Z,81.17
2018-05-21T03:36:37.848Z,80.88
2018-05-21T03:37:37.577Z,80.60
2018-05-21T03:38:37.568Z,80.50
2018-05-21T03:39:38.481Z,80.98
2018-05-21T03:40:38.363Z,81.17
2018-05-21T03:42:20.477Z,81.36
2018-05-21T03:43:21.015Z,81.07
2018-05-21T03:44:20.526Z,81.65
2018-05-21T03:45:20.901Z,81.36
2018-05-21T03:46:42.173Z,81.46
2018-05-21T03:47:42.967Z,81.55
2018-05-21T03:48:42.376Z,81.65
2018-05-21T03:49:42.735Z,81.36
2018-05-21T03:51:04.042Z,81.93
2018-05-21T03:52:04.611Z,82.12
2018-05-21T03:53:04.430Z,81.49
2018-05-21T03:54:04.380Z,82.17
2018-05-21T03:55:04.423Z,81.88
2018-05-21T03:56:04.634Z,82.07
2018-05-21T03:57:04.470Z,81.68
2018-05-21T03:58:04.184Z,81.78
2018-05-21T03:59:04.006Z,81.68
2018-05-21T04:00:04.864Z,81.97
2018-05-21T04:01:04.513Z,81.97
2018-05-21T04:02:04.332Z,81.49
2018-05-21T04:03:04.447Z,81.30
2018-05-21T04:04:04.550Z,81.40
2018-05-21T04:05:04.558Z,81.30
2018-05-21T04:06:04.462Z,81.30
2018-05-21T04:07:03.912Z,81.21
2018-05-21T04:08:04.508Z,81.12
2018-05-21T04:09:04.411Z,81.49
2018-05-21T04:10:03.970Z,81.88
2018-05-21T04:11:04.972Z,81.78
2018-05-21T04:12:26.381Z,81.49
2018-05-21T04:13:26.103Z,81.59
2018-05-21T04:14:27.816Z,81.68
2018-05-21T04:15:26.479Z,82.07
2018-05-21T04:16:26.512Z,81.21
2018-05-21T04:18:33.246Z,81.40
2018-05-21T04:19:54.963Z,82.35
2018-05-21T04:20:55.789Z,82.07
2018-05-21T04:21:55.528Z,82.45
2018-05-21T04:22:55.449Z,82.35
2018-05-21T04:23:55.296Z,82.45
2018-05-21T04:24:55.306Z,82.26
2018-05-21T04:25:55.280Z,81.97
2018-05-21T04:26:55.489Z,81.88
2018-05-21T04:27:55.286Z,82.17
2018-05-21T04:28:54.684Z,84.01
2018-05-21T04:30:38.142Z,85.25
2018-05-21T04:31:39.036Z,84.82
2018-05-21T04:32:38.800Z,85.39
2018-05-21T04:33:38.346Z,85.68
2018-05-21T04:34:37.813Z,86.25
2018-05-21T04:35:38.827Z,86.39
2018-05-21T04:36:38.552Z,86.20
2018-05-21T04:37:38.077Z,86.20
2018-05-21T04:38:59.847Z,86.05
2018-05-21T04:40:00.827Z,86.05
2018-05-21T04:41:00.327Z,85.77
2018-05-21T04:42:00.013Z,85.58
2018-05-21T04:43:00.654Z,85.19
2018-05-21T04:44:00.078Z,84.81
2018-05-21T04:45:00.050Z,84.91
2018-05-21T04:46:00.781Z,84.91
2018-05-21T04:47:00.308Z,84.85
2018-05-21T04:48:00.069Z,84.47
2018-05-21T04:49:00.915Z,84.09
2018-05-21T04:50:00.636Z,83.90
2018-05-21T04:51:00.353Z,83.61
2018-05-21T04:52:00.149Z,83.46
2018-05-21T04:53:00.274Z,83.37
2018-05-21T04:53:59.919Z,83.23
2018-05-21T04:55:21.911Z,83.61
2018-05-21T04:56:44.050Z,84.14
2018-05-21T04:57:45.430Z,84.05
2018-05-21T04:58:44.143Z,84.14
2018-05-21T05:00:26.661Z,84.62
2018-05-21T05:01:27.750Z,84.62
2018-05-21T05:02:27.401Z,84.43
2018-05-21T05:03:27.440Z,84.62
2018-05-21T05:04:27.189Z,84.62
2018-05-21T05:05:26.923Z,84.62
2018-05-21T05:06:27.609Z,84.86
2018-05-21T05:07:27.095Z,84.86
2018-05-21T05:08:26.656Z,84.96
2018-05-21T05:10:31.563Z,84.96
2018-05-21T05:11:32.159Z,84.86
2018-05-21T05:12:53.066Z,84.20
2018-05-21T05:13:54.412Z,84.58
2018-05-21T05:14:54.892Z,85.34
2018-05-21T05:15:53.843Z,84.86
2018-05-21T05:16:53.680Z,85.48
2018-05-21T05:17:53.537Z,85.77
2018-05-21T05:18:53.522Z,85.33
2018-05-21T05:20:15.267Z,84.80
2018-05-21T05:21:37.383Z,83.46
2018-05-21T05:22:37.947Z,81.49
2018-05-21T05:23:37.935Z,80.73
2018-05-21T05:24:37.891Z,80.35
2018-05-21T05:25:59.505Z,79.81
2018-05-21T05:27:00.331Z,79.33
2018-05-21T05:28:00.268Z,77.65
2018-05-21T05:29:00.346Z,77.08
2018-05-21T05:30:00.318Z,75.87
2018-05-21T05:31:00.229Z,74.43
2018-05-21T05:32:00.994Z,73.28
2018-05-21T05:32:59.769Z,73.19
2018-05-21T05:33:59.690Z,73.13
2018-05-21T05:34:59.249Z,71.11
2018-05-21T05:36:00.213Z,70.73
2018-05-21T05:37:00.252Z,70.35
2018-05-21T05:38:00.085Z,70.15
2018-05-21T05:38:59.991Z,70.57
2018-05-21T05:40:00.238Z,69.13
2018-05-21T05:41:00.188Z,68.21
2018-05-21T05:41:59.954Z,67.06
2018-05-21T05:42:59.856Z,66.10
2018-05-21T05:43:59.815Z,65.46
2018-05-21T05:44:59.272Z,65.27
2018-05-21T05:45:59.878Z,64.59
2018-05-21T05:47:21.057Z,64.40
2018-05-21T05:48:21.787Z,63.45
2018-05-21T05:49:21.762Z,63.92
2018-05-21T05:50:21.670Z,62.81
2018-05-21T05:51:21.264Z,63.64
2018-05-21T05:52:42.606Z,63.19
2018-05-21T05:53:43.115Z,62.81
2018-05-21T05:54:43.008Z,62.71
2018-05-21T05:55:42.945Z,61.20
2018-05-21T05:56:42.759Z,60.91
2018-05-21T05:57:43.394Z,60.34
2018-05-21T05:58:43.069Z,60.37
2018-05-21T05:59:42.781Z,60.37
2018-05-21T06:00:43.765Z,59.69
2018-05-21T06:01:43.349Z,60.01
2018-05-21T06:02:44.192Z,59.63
2018-05-21T06:03:43.178Z,58.70
2018-05-21T06:04:42.797Z,56.96
2018-05-21T06:05:43.400Z,56.87
2018-05-21T06:06:43.062Z,56.29
2018-05-21T06:07:43.906Z,56.32
2018-05-21T06:08:43.546Z,55.93
2018-05-21T06:09:43.459Z,56.44
2018-05-21T06:10:43.232Z,55.77
2018-05-21T06:11:43.574Z,54.35
2018-05-21T06:12:43.233Z,54.16
2018-05-21T06:13:43.251Z,53.58
2018-05-21T06:14:43.282Z,53.96
2018-05-21T06:15:42.739Z,54.09
2018-05-21T06:16:43.671Z,53.80
2018-05-21T06:17:43.630Z,53.22
2018-05-21T06:18:43.649Z,52.47
2018-05-21T06:19:43.158Z,52.19
2018-05-21T06:20:43.015Z,51.89
2018-05-21T06:21:43.547Z,51.58
2018-05-21T06:22:43.537Z,52.35
2018-05-21T06:23:43.115Z,53.05
2018-05-21T06:24:42.803Z,52.28
2018-05-21T06:25:42.897Z,51.61
2018-05-21T06:26:43.726Z,51.41
2018-05-21T06:27:43.816Z,51.61
2018-05-21T06:28:43.427Z,51.99
2018-05-21T06:30:04.648Z,51.34
2018-05-21T06:31:05.296Z,51.41
2018-05-21T06:32:04.979Z,51.44
2018-05-21T06:33:04.857Z,51.44
2018-05-21T06:34:05.898Z,51.17
2018-05-21T06:35:04.682Z,50.40
2018-05-21T06:36:05.436Z,50.01
2018-05-21T06:37:40.470Z,49.53
2018-05-21T06:38:41.192Z,49.63
2018-05-21T06:39:40.069Z,49.82
2018-05-21T06:40:40.044Z,49.60
2018-05-21T06:42:02.036Z,50.84
2018-05-21T06:43:01.886Z,51.39
2018-05-21T06:44:01.730Z,52.25
2018-05-21T06:45:02.733Z,52.45
2018-05-21T06:46:02.477Z,51.82
2018-05-21T06:47:02.715Z,50.76
2018-05-21T06:48:23.948Z,51.15
2018-05-21T06:49:24.921Z,50.98
2018-05-21T06:50:24.931Z,50.98
2018-05-21T06:51:24.804Z,51.27
2018-05-21T06:52:24.760Z,50.69
2018-05-21T06:53:24.255Z,50.79
2018-05-21T06:54:25.167Z,50.40
2018-05-21T06:55:24.932Z,50.50
2018-05-21T06:56:24.711Z,51.01
2018-05-21T06:57:24.212Z,50.23
2018-05-21T06:58:25.104Z,50.04
2018-05-21T06:59:25.232Z,50.04
2018-05-21T07:00:24.795Z,49.19
2018-05-21T07:01:45.865Z,48.97
2018-05-21T07:02:46.691Z,49.27
2018-05-21T07:03:46.439Z,49.39
2018-05-21T07:04:46.984Z,49.10
2018-05-21T07:06:08.223Z,49.39
2018-05-21T07:07:07.871Z,49.29
2018-05-21T07:08:09.070Z,49.99
2018-05-21T07:09:30.309Z,48.54
2018-05-21T07:10:30.245Z,49.44
2018-05-21T07:11:29.884Z,48.69
2018-05-21T07:12:30.020Z,48.49
2018-05-21T07:13:29.934Z,47.69
2018-05-21T07:14:29.667Z,47.96
2018-05-21T07:15:30.621Z,48.54
2018-05-21T07:16:30.471Z,48.64
2018-05-21T07:17:30.024Z,48.54
2018-05-21T07:18:30.716Z,48.54
2018-05-21T07:19:30.400Z,48.95
2018-05-21T07:20:30.151Z,48.97
2018-05-21T07:21:51.666Z,48.01
2018-05-21T07:22:53.125Z,47.81
2018-05-21T07:23:52.809Z,47.81
2018-05-21T07:24:52.781Z,48.20
2018-05-21T07:25:52.130Z,48.22
2018-05-21T07:26:52.072Z,47.77
2018-05-21T07:27:52.147Z,47.77
2018-05-21T07:28:52.253Z,47.02
2018-05-21T07:29:51.980Z,46.43
2018-05-21T07:31:13.273Z,46.26
2018-05-21T07:32:35.517Z,46.07
2018-05-21T07:33:35.594Z,45.51
2018-05-21T07:34:35.534Z,45.21
2018-05-21T07:35:35.273Z,45.78
2018-05-21T07:36:36.694Z,45.80
2018-05-21T07:37:36.036Z,45.48
2018-05-21T07:38:35.815Z,46.45
2018-05-21T07:39:35.685Z,46.07
2018-05-21T07:40:57.447Z,45.41
2018-05-21T07:42:19.332Z,44.95
2018-05-21T07:43:41.042Z,45.62
2018-05-21T07:44:41.642Z,44.19
2018-05-21T07:45:41.274Z,44.97
2018-05-21T07:46:42.097Z,44.02
2018-05-21T07:47:41.723Z,44.60
2018-05-21T07:48:41.928Z,43.41
2018-05-21T07:50:03.562Z,43.98
2018-05-21T07:51:03.521Z,44.78
2018-05-21T07:52:03.236Z,44.87
2018-05-21T07:53:03.106Z,44.19
2018-05-21T07:54:04.080Z,43.88
2018-05-21T07:55:04.235Z,44.64
2018-05-21T07:56:05.027Z,45.68
2018-05-21T07:57:04.316Z,45.80
2018-05-21T07:58:04.118Z,46.28
2018-05-21T07:59:04.056Z,45.41
2018-05-21T08:00:04.133Z,45.68
2018-05-21T08:01:04.034Z,45.87
2018-05-21T08:02:04.176Z,46.07
2018-05-21T08:03:04.458Z,46.48
2018-05-21T08:04:26.291Z,45.04
2018-05-21T08:05:26.726Z,45.80
2018-05-21T08:06:28.624Z,45.89
2018-05-21T08:07:26.132Z,46.41
2018-05-21T08:08:26.914Z,46.14
2018-05-21T08:10:33.619Z,44.79
2018-05-21T08:11:34.455Z,44.43
2018-05-21T08:12:34.541Z,43.54
2018-05-21T08:13:34.700Z,44.31
2018-05-21T08:14:33.573Z,45.09
2018-05-21T08:15:34.305Z,44.72
2018-05-21T08:16:34.596Z,44.74
2018-05-21T08:17:34.523Z,43.60
2018-05-21T08:18:35.152Z,42.72
2018-05-21T08:19:37.002Z,42.53
2018-05-21T08:20:33.867Z,42.33
2018-05-21T08:21:33.552Z,42.43
2018-05-21T08:22:33.593Z,42.82
2018-05-21T08:23:34.653Z,42.70
2018-05-21T08:25:18.529Z,43.19
2018-05-21T08:26:19.451Z,42.49
2018-05-21T08:27:19.468Z,43.36
2018-05-21T08:28:41.284Z,44.21
2018-05-21T08:29:45.036Z,44.16
2018-05-21T08:30:41.759Z,43.89
2018-05-21T08:31:41.545Z,42.65
2018-05-21T08:32:41.415Z,42.86
2018-05-21T08:33:41.454Z,41.40
2018-05-21T08:34:41.401Z,41.30
2018-05-21T08:35:41.586Z,40.99
2018-05-21T08:36:41.207Z,41.77
2018-05-21T08:38:03.928Z,42.31
2018-05-21T08:39:04.793Z,42.55
2018-05-21T08:40:04.704Z,42.28
2018-05-21T08:41:04.547Z,41.69
2018-05-21T08:42:25.845Z,41.71
2018-05-21T08:43:25.958Z,41.38
2018-05-21T08:44:26.820Z,42.06
2018-05-21T08:45:26.547Z,42.06
2018-05-21T08:46:26.593Z,42.55
2018-05-21T08:47:27.279Z,42.06
2018-05-21T08:48:26.468Z,41.71
2018-05-21T08:49:27.078Z,41.44
2018-05-21T08:50:26.657Z,40.78
2018-05-21T08:52:31.410Z,40.64
2018-05-21T08:53:31.080Z,41.42
2018-05-21T08:54:31.908Z,41.52
2018-05-21T08:55:31.930Z,41.03
2018-05-21T08:56:32.429Z,40.91
2018-05-21T08:57:31.205Z,41.40
2018-05-21T08:58:32.455Z,40.72
2018-05-21T08:59:31.493Z,40.83
2018-05-21T09:00:31.657Z,41.03
2018-05-21T09:01:53.523Z,40.55
2018-05-21T09:02:54.545Z,40.70
2018-05-21T09:03:53.266Z,41.57
2018-05-21T09:04:54.156Z,41.67
2018-05-21T09:05:54.077Z,41.09
2018-05-21T09:06:55.047Z,41.19
2018-05-21T09:07:53.867Z,41.50
2018-05-21T09:08:53.811Z,41.48
2018-05-21T09:09:53.416Z,41.60
2018-05-21T09:10:54.040Z,41.42
2018-05-21T09:11:54.055Z,41.44
2018-05-21T09:12:54.181Z,40.76
2018-05-21T09:14:15.491Z,41.05
2018-05-21T09:15:37.847Z,41.25
2018-05-21T09:16:40.976Z,40.25
2018-05-21T09:17:38.235Z,40.52
2018-05-21T09:18:37.971Z,41.19
2018-05-21T09:19:39.002Z,41.50
2018-05-21T09:20:38.155Z,41.30
2018-05-21T09:21:38.137Z,41.50
2018-05-21T09:22:38.360Z,41.42
2018-05-21T09:23:38.614Z,42.00
2018-05-21T09:24:41.705Z,41.15
2018-05-21T09:25:38.418Z,40.01
2018-05-21T09:26:38.195Z,39.92
2018-05-21T09:27:37.873Z,40.31
2018-05-21T09:28:38.045Z,39.76
2018-05-21T09:29:38.050Z,39.49
2018-05-21T09:30:37.888Z,38.90
2018-05-21T09:31:38.711Z,38.28
2018-05-21T09:32:38.680Z,38.67
2018-05-21T09:33:38.420Z,38.94
2018-05-21T09:34:38.175Z,39.33
2018-05-21T09:36:00.726Z,39.14
2018-05-21T09:37:00.455Z,38.35
2018-05-21T09:38:01.869Z,38.35
2018-05-21T09:39:34.163Z,38.73
2018-05-21T09:40:32.878Z,38.45
2018-05-21T09:41:34.155Z,38.75
2018-05-21T09:42:55.546Z,39.22
2018-05-21T09:43:55.827Z,39.53
2018-05-21T09:44:56.170Z,39.36
2018-05-21T09:45:55.687Z,39.36
2018-05-21T09:46:56.009Z,39.76
2018-05-21T09:48:22.595Z,38.16
2018-05-21T09:49:20.592Z,38.96
2018-05-21T09:50:20.814Z,39.08
2018-05-21T09:51:20.771Z,38.43
2018-05-21T09:52:21.622Z,37.77
2018-05-21T09:53:41.995Z,36.20
2018-05-21T09:54:43.800Z,36.38
2018-05-21T09:55:44.411Z,36.34
2018-05-21T09:56:42.716Z,37.21
2018-05-21T09:57:42.626Z,37.91
2018-05-21T09:58:43.055Z,37.73
2018-05-21T09:59:43.707Z,36.72
2018-05-21T10:00:43.440Z,37.41
2018-05-21T10:01:42.863Z,37.01
2018-05-21T10:03:05.214Z,36.93
2018-05-21T10:04:05.331Z,36.24
2018-05-21T10:05:04.470Z,36.43
2018-05-21T10:06:04.431Z,36.91
2018-05-21T10:07:04.171Z,37.11
2018-05-21T10:08:05.152Z,36.54
2018-05-21T10:09:05.065Z,36.34
2018-05-21T10:10:06.432Z,36.73
2018-05-21T10:11:04.356Z,36.77
2018-05-21T10:12:05.380Z,35.89
2018-05-21T10:13:05.167Z,35.55
2018-05-21T10:14:05.231Z,36.99
2018-05-21T10:15:06.094Z,37.48
2018-05-21T10:16:05.035Z,37.96
2018-05-21T10:17:04.972Z,38.69
2018-05-21T10:18:06.083Z,36.54
2018-05-21T10:19:04.932Z,36.73
2018-05-21T10:20:05.010Z,36.63
2018-05-21T10:21:05.054Z,36.83
2018-05-21T10:22:05.260Z,36.82
2018-05-21T10:23:05.248Z,37.91
2018-05-21T10:24:05.614Z,37.71
2018-05-21T10:25:27.539Z,37.65
2018-05-21T10:26:27.631Z,37.08
2018-05-21T10:27:28.352Z,36.32
2018-05-21T10:28:27.390Z,35.04
2018-05-21T10:29:27.051Z,34.91
2018-05-21T10:30:26.857Z,36.16
2018-05-21T10:31:26.909Z,36.55
2018-05-21T10:32:29.109Z,35.87
2018-05-21T10:33:27.762Z,36.00
2018-05-21T10:34:28.058Z,35.03
2018-05-21T10:35:27.261Z,35.50
2018-05-21T10:36:26.907Z,35.48
2018-05-21T10:37:27.016Z,35.69
2018-05-21T10:38:27.185Z,35.30
2018-05-21T10:39:27.408Z,35.79
2018-05-21T10:40:27.385Z,35.79
2018-05-21T10:41:27.861Z,35.69
2018-05-21T10:42:27.610Z,35.68
2018-05-21T10:43:28.548Z,36.28
2018-05-21T10:44:27.780Z,35.81
2018-05-21T10:45:28.324Z,35.04
2018-05-21T10:46:27.087Z,34.44
2018-05-21T10:47:27.264Z,35.21
2018-05-21T10:48:28.034Z,35.97
2018-05-21T10:49:51.144Z,36.18
2018-05-21T10:51:36.151Z,36.46
2018-05-21T10:52:35.891Z,36.07
2018-05-21T10:53:36.847Z,36.54
2018-05-21T10:55:00.578Z,36.72
2018-05-21T10:56:01.066Z,36.63
2018-05-21T10:57:22.727Z,36.72
2018-05-21T10:58:23.764Z,36.34
2018-05-21T10:59:23.773Z,36.44
2018-05-21T11:00:23.411Z,36.62
2018-05-21T11:01:25.578Z,37.12
2018-05-21T11:02:23.553Z,36.08
2018-05-21T11:03:22.893Z,35.91
2018-05-21T11:04:23.386Z,35.60
2018-05-21T11:05:22.849Z,35.68
2018-05-21T11:06:25.873Z,36.07
2018-05-21T11:07:27.323Z,35.77
2018-05-21T11:08:48.419Z,36.15
2018-05-21T11:09:50.157Z,36.44
2018-05-21T11:11:33.419Z,36.23
2018-05-21T11:12:39.726Z,36.75
2018-05-21T11:13:52.264Z,36.40
2018-05-21T11:14:39.489Z,35.24
2018-05-21T11:15:39.755Z,34.74
2018-05-21T11:16:38.333Z,34.89
2018-05-21T11:17:43.816Z,35.19
2018-05-21T11:19:11.013Z,35.56
2018-05-21T11:20:44.463Z,36.62
2018-05-21T11:21:50.202Z,36.24
2018-05-21T11:23:38.203Z,36.10
2018-05-21T11:24:39.558Z,34.84
2018-05-21T11:25:38.454Z,35.53
2018-05-21T11:26:37.375Z,34.94
2018-05-21T11:27:37.046Z,35.94
2018-05-21T11:28:37.800Z,34.65
2018-05-21T11:30:00.844Z,35.11
2018-05-21T11:31:05.987Z,35.97
2018-05-21T11:32:01.450Z,35.58
2018-05-21T11:33:01.206Z,36.05
2018-05-21T11:33:59.948Z,35.85
2018-05-21T11:35:00.816Z,36.05
2018-05-21T11:36:00.523Z,35.87
2018-05-21T11:37:00.657Z,35.19
2018-05-21T11:38:00.581Z,35.58
2018-05-21T11:39:00.630Z,35.66
2018-05-21T11:40:21.620Z,36.93
2018-05-21T11:41:22.382Z,36.36
2018-05-21T11:42:26.626Z,36.54
2018-05-21T11:43:22.567Z,36.24
2018-05-21T11:44:22.404Z,36.85
2018-05-21T11:45:22.272Z,35.95
2018-05-21T11:47:53.866Z,36.52
2018-05-21T11:48:59.726Z,36.52
2018-05-21T11:53:21.572Z,35.50
2018-05-21T11:54:15.493Z,35.97
2018-05-21T11:55:15.477Z,35.45
2018-05-21T11:56:15.046Z,35.92
2018-05-21T11:57:16.906Z,36.60
2018-05-21T11:58:38.139Z,36.68
2018-05-21T11:59:38.687Z,37.01
2018-05-21T12:00:38.257Z,36.04
2018-05-21T12:01:38.152Z,36.13
2018-05-21T12:02:38.965Z,36.34
2018-05-21T12:03:38.034Z,35.95
2018-05-21T12:04:38.035Z,36.55
2018-05-21T12:05:38.176Z,35.28
2018-05-21T12:06:38.328Z,35.36
2018-05-21T12:07:37.584Z,35.27
2018-05-21T12:08:38.194Z,35.92
2018-05-21T12:09:38.090Z,36.29
2018-05-21T12:10:37.879Z,36.41
2018-05-21T12:11:37.979Z,36.11
2018-05-21T12:13:21.164Z,36.41
2018-05-21T12:14:21.031Z,36.72
2018-05-21T12:15:21.905Z,35.43
2018-05-21T12:16:22.754Z,35.61
2018-05-21T12:17:21.759Z,36.10
2018-05-21T12:18:43.598Z,36.21
2018-05-21T12:19:43.853Z,35.84
2018-05-21T12:20:43.637Z,35.24
2018-05-21T12:21:43.881Z,36.51
2018-05-21T12:22:43.856Z,36.31
2018-05-21T12:23:43.868Z,35.45
2018-05-21T12:24:43.765Z,35.63
2018-05-21T12:25:43.602Z,35.74
2018-05-21T12:26:44.761Z,35.84
2018-05-21T12:27:43.781Z,35.48
2018-05-21T12:28:44.745Z,34.80
2018-05-21T12:29:43.903Z,35.68
2018-05-21T12:30:46.675Z,34.89
2018-05-21T12:32:27.988Z,34.62
2018-05-21T12:33:28.584Z,34.34
2018-05-21T12:34:49.651Z,34.05
2018-05-21T12:35:50.844Z,33.82
2018-05-21T12:36:49.487Z,33.82
2018-05-21T12:37:50.888Z,33.51
2018-05-21T12:38:50.310Z,33.80
2018-05-21T12:39:50.596Z,34.00
2018-05-21T12:40:50.827Z,34.00
2018-05-21T12:42:11.990Z,33.50
2018-05-21T12:43:14.137Z,33.77
2018-05-21T12:44:36.749Z,34.63
2018-05-21T12:45:37.080Z,34.63
2018-05-21T12:46:37.298Z,35.14
2018-05-21T12:48:00.908Z,34.77
2018-05-21T12:48:59.655Z,34.26
2018-05-21T12:49:59.461Z,34.06
2018-05-21T12:51:00.429Z,34.14
2018-05-21T12:52:02.581Z,34.36
2018-05-21T12:52:59.600Z,34.26
2018-05-21T12:54:23.255Z,34.75
2018-05-21T12:55:23.294Z,34.84
2018-05-21T12:56:23.408Z,34.67
2018-05-21T12:57:46.247Z,33.69
2018-05-21T12:58:47.125Z,33.77
2018-05-21T12:59:46.793Z,33.67
2018-05-21T13:00:47.491Z,33.95
2018-05-21T13:01:49.849Z,34.34
2018-05-21T13:02:49.434Z,35.49
2018-05-21T13:03:47.030Z,35.71
2018-05-21T13:04:47.213Z,34.24
2018-05-21T13:05:46.401Z,34.32
2018-05-21T13:06:52.952Z,34.71
2018-05-21T13:07:48.070Z,34.81
2018-05-21T13:09:03.872Z,35.22
2018-05-21T13:10:26.017Z,34.44
2018-05-21T13:11:27.636Z,34.73
2018-05-21T13:12:27.331Z,34.84
2018-05-21T13:13:27.206Z,34.84
2018-05-21T13:14:26.503Z,34.45
2018-05-21T13:16:10.440Z,34.84
2018-05-21T13:17:33.199Z,34.92
2018-05-21T13:18:33.482Z,35.71
2018-05-21T13:19:33.389Z,35.82
2018-05-21T13:20:33.484Z,35.02
2018-05-21T13:21:35.440Z,34.81
2018-05-21T13:22:34.269Z,35.57
2018-05-21T13:23:33.630Z,35.55
2018-05-21T13:24:33.661Z,36.06
2018-05-21T13:25:33.510Z,35.78
2018-05-21T13:26:34.294Z,35.61
2018-05-21T13:27:34.852Z,35.14
2018-05-21T13:28:33.349Z,34.05
2018-05-21T13:29:33.864Z,34.34
2018-05-21T13:30:34.669Z,34.32
2018-05-21T13:31:34.237Z,34.79
2018-05-21T13:32:33.751Z,35.08
2018-05-21T13:33:33.720Z,35.00
2018-05-21T13:34:33.580Z,35.10
2018-05-21T13:35:34.178Z,34.83
2018-05-21T13:36:34.730Z,35.04
2018-05-21T13:37:56.515Z,34.94
2018-05-21T13:38:56.331Z,34.55
2018-05-21T13:39:56.304Z,34.44
2018-05-21T13:41:20.452Z,34.81
2018-05-21T13:42:22.857Z,34.71
2018-05-21T13:43:20.850Z,34.89
2018-05-21T13:44:22.413Z,34.88